Time;durP1;ratioP1;P1;durP2;ratioP2;P2;SDS_P1;SDS_P2;PMS_P1;PMS_P2;Temp;Humidity;BMP_temperature;BMP_pressure;BME280_temperature;BME280_humidity;BME280_pressure;Samples;Min_cycle;Max_cycle;Signal;HPM_P1;HPM_P2
2021/07/31 00:01:01;;;;;;;12.48;5.20;;;;;;;;;;5049993;28;20178;-71
2021/07/31 00:03:26;;;;;;;18.23;6.30;;;;;;;;;;5051117;28;20208;-72
2021/07/31 00:05:52;;;;;;;12.35;5.45;;;;;;;;;;5051877;28;20189;-73
2021/07/31 00:08:17;;;;;;;15.77;5.63;;;;;;;;;;5051477;28;20216;-72
2021/07/31 00:10:42;;;;;;;12.07;5.50;;;;;;;;;;5050926;28;20177;-73
2021/07/31 00:13:07;;;;;;;12.40;5.68;;;;;;;;;;5047798;28;20456;-72
2021/07/31 00:15:33;;;;;;;14.18;5.72;;;;;;;;;;5048284;28;20273;-72
2021/07/31 00:17:58;;;;;;;12.85;5.97;;;;;;;;;;5055684;28;20181;-72
2021/07/31 00:20:23;;;;;;;16.77;6.00;;;;;;;;;;5049282;28;20185;-73
2021/07/31 00:22:48;;;;;;;16.13;7.07;;;;;;;;;;5051846;28;20478;-72
2021/07/31 00:25:13;;;;;;;16.00;6.30;;;;;;;;;;5050087;28;21197;-73
2021/07/31 00:27:38;;;;;;;14.70;5.97;;;;;;;;;;5046576;28;20525;-72
2021/07/31 00:30:04;;;;;;;15.27;6.80;;;;;;;;;;5050588;28;20836;-72
2021/07/31 00:32:29;;;;;;;13.38;5.45;;;;;;;;;;5049485;28;20450;-73
2021/07/31 00:34:54;;;;;;;15.63;6.87;;;;;;;;;;5046203;28;20192;-73
2021/07/31 00:37:19;;;;;;;13.30;6.73;;;;;;;;;;5050676;28;20442;-73
2021/07/31 00:39:44;;;;;;;15.23;6.30;;;;;;;;;;5049073;28;20424;-73
2021/07/31 00:42:10;;;;;;;16.02;7.20;;;;;;;;;;5050814;28;20428;-73
2021/07/31 00:44:36;;;;;;;11.65;6.10;;;;;;;;;;5053808;28;20213;-72
2021/07/31 00:47:02;;;;;;;15.43;6.28;;;;;;;;;;5047551;28;20625;-74
2021/07/31 00:49:28;;;;;;;9.77;6.25;;;;;;;;;;5049817;28;20240;-73
2021/07/31 00:51:53;;;;;;;10.98;6.25;;;;;;;;;;5050198;28;20184;-73
2021/07/31 00:54:19;;;;;;;12.10;6.38;;;;;;;;;;5050304;28;20197;-73
2021/07/31 00:56:45;;;;;;;14.35;6.40;;;;;;;;;;5047337;28;20708;-73
2021/07/31 00:59:10;;;;;;;11.55;6.07;;;;;;;;;;5048240;28;20190;-72
2021/07/31 01:01:36;;;;;;;16.75;5.80;;;;;;;;;;5052455;28;20189;-74
2021/07/31 01:04:01;;;;;;;14.18;6.35;;;;;;;;;;5051138;28;20209;-73
2021/07/31 01:06:26;;;;;;;12.52;5.53;;;;;;;;;;5048146;28;20666;-71
2021/07/31 01:08:51;;;;;;;13.15;6.05;;;;;;;;;;5050014;28;20323;-73
2021/07/31 01:11:17;;;;;;;16.33;5.87;;;;;;;;;;5050382;28;20564;-72
2021/07/31 01:13:43;;;;;;;11.10;5.35;;;;;;;;;;5050161;28;20563;-71
2021/07/31 01:16:08;;;;;;;13.85;5.53;;;;;;;;;;5032531;28;20185;-74
2021/07/31 01:18:34;;;;;;;10.80;5.68;;;;;;;;;;5049043;28;20178;-73
2021/07/31 01:20:59;;;;;;;7.20;5.07;;;;;;;;;;5048488;28;20534;-72
2021/07/31 01:23:24;;;;;;;11.57;5.80;;;;;;;;;;5050147;28;20205;-73
2021/07/31 01:25:49;;;;;;;8.55;4.90;;;;;;;;;;5050050;28;20185;-73
2021/07/31 01:28:15;;;;;;;7.88;5.72;;;;;;;;;;5053266;28;20739;-71
2021/07/31 01:30:40;;;;;;;9.00;5.70;;;;;;;;;;5049723;28;20178;-73
2021/07/31 01:33:05;;;;;;;9.95;6.25;;;;;;;;;;5030845;28;20247;-73
2021/07/31 01:35:30;;;;;;;9.60;5.70;;;;;;;;;;5050147;28;20173;-70
2021/07/31 01:37:56;;;;;;;15.93;5.65;;;;;;;;;;5048762;28;20217;-72
2021/07/31 01:40:21;;;;;;;9.70;6.13;;;;;;;;;;5049712;28;20193;-69
2021/07/31 01:42:46;;;;;;;12.67;5.00;;;;;;;;;;5048636;28;20450;-70
2021/07/31 01:45:11;;;;;;;10.02;4.80;;;;;;;;;;5050235;28;20428;-73
2021/07/31 01:47:36;;;;;;;6.53;4.95;;;;;;;;;;5049457;28;20185;-72
2021/07/31 01:50:02;;;;;;;9.65;5.13;;;;;;;;;;5051132;28;20186;-74
2021/07/31 01:52:27;;;;;;;8.95;5.18;;;;;;;;;;5049623;28;20206;-74
2021/07/31 01:54:52;;;;;;;11.93;4.90;;;;;;;;;;5049671;28;20264;-74
2021/07/31 01:57:18;;;;;;;9.83;5.00;;;;;;;;;;5047201;28;20204;-74
2021/07/31 01:59:43;;;;;;;9.18;5.88;;;;;;;;;;5048902;28;20439;-72
2021/07/31 02:04:47;;;;;;;12.18;5.88;;;;;;;;;;5066667;28;20231;-69
2021/07/31 02:07:12;;;;;;;10.53;5.63;;;;;;;;;;5068089;28;20169;-68
2021/07/31 02:09:37;;;;;;;12.13;4.95;;;;;;;;;;5066854;28;20937;-69
2021/07/31 02:12:03;;;;;;;17.98;5.55;;;;;;;;;;5068832;28;20173;-69
2021/07/31 02:14:28;;;;;;;11.70;5.32;;;;;;;;;;5064306;28;20696;-70
2021/07/31 02:16:53;;;;;;;13.43;6.32;;;;;;;;;;5064706;28;20753;-69
2021/07/31 02:19:18;;;;;;;8.45;5.18;;;;;;;;;;5062915;28;20184;-69
2021/07/31 02:21:44;;;;;;;8.18;4.53;;;;;;;;;;5069749;28;20720;-68
2021/07/31 02:24:09;;;;;;;11.02;6.03;;;;;;;;;;5066176;28;20210;-70
2021/07/31 02:26:34;;;;;;;10.35;4.30;;;;;;;;;;5066888;28;20185;-69
2021/07/31 02:28:59;;;;;;;8.05;4.20;;;;;;;;;;5066956;28;20192;-69
2021/07/31 02:31:24;;;;;;;14.25;5.65;;;;;;;;;;5055548;28;20183;-69
2021/07/31 02:33:50;;;;;;;5.88;4.47;;;;;;;;;;5063957;28;20666;-70
2021/07/31 02:36:15;;;;;;;7.80;4.93;;;;;;;;;;5068225;28;20182;-69
2021/07/31 02:38:40;;;;;;;10.10;5.43;;;;;;;;;;5067623;28;20260;-68
2021/07/31 02:41:05;;;;;;;8.52;4.95;;;;;;;;;;5053148;28;20263;-69
2021/07/31 02:43:30;;;;;;;8.40;5.40;;;;;;;;;;5065576;28;20201;-68
2021/07/31 02:46:01;;;;;;;8.63;5.30;;;;;;;;;;5067608;28;20227;-69
2021/07/31 02:48:26;;;;;;;6.60;5.38;;;;;;;;;;5066798;28;20205;-69
2021/07/31 02:50:51;;;;;;;7.93;6.87;;;;;;;;;;5067848;28;20258;-69
2021/07/31 02:53:16;;;;;;;9.20;6.07;;;;;;;;;;5066429;28;20461;-69
2021/07/31 02:55:45;;;;;;;13.10;6.87;;;;;;;;;;5069456;28;20814;-68
2021/07/31 02:58:10;;;;;;;8.23;6.50;;;;;;;;;;5072877;28;20768;-68
2021/07/31 03:00:35;;;;;;;10.70;7.17;;;;;;;;;;5071182;28;20290;-68
2021/07/31 03:03:00;;;;;;;13.10;7.03;;;;;;;;;;5065740;28;20449;-68
2021/07/31 03:05:25;;;;;;;9.95;6.75;;;;;;;;;;5071230;28;20192;-68
2021/07/31 03:07:50;;;;;;;10.70;6.13;;;;;;;;;;5069592;28;20645;-69
2021/07/31 03:10:16;;;;;;;9.52;6.28;;;;;;;;;;5070431;28;20481;-69
2021/07/31 03:12:41;;;;;;;9.13;7.07;;;;;;;;;;5069806;28;20193;-69
2021/07/31 03:15:06;;;;;;;15.73;7.18;;;;;;;;;;5068545;28;20185;-69
2021/07/31 03:17:31;;;;;;;9.65;7.07;;;;;;;;;;5067003;28;20185;-69
2021/07/31 03:19:56;;;;;;;11.77;6.32;;;;;;;;;;5072634;28;20263;-70
2021/07/31 03:22:22;;;;;;;9.80;6.60;;;;;;;;;;5054671;28;20673;-69
2021/07/31 03:24:47;;;;;;;11.63;7.40;;;;;;;;;;5066516;28;20647;-70
2021/07/31 03:27:12;;;;;;;12.27;7.43;;;;;;;;;;5072441;28;20234;-68
2021/07/31 03:29:37;;;;;;;12.98;7.22;;;;;;;;;;5070189;28;20843;-69
2021/07/31 03:32:03;;;;;;;13.63;7.72;;;;;;;;;;5071336;28;20188;-69
2021/07/31 03:34:28;;;;;;;9.23;7.63;;;;;;;;;;5069430;28;20284;-70
2021/07/31 03:36:53;;;;;;;17.55;8.13;;;;;;;;;;5072795;28;20179;-69
2021/07/31 03:39:20;;;;;;;12.40;7.45;;;;;;;;;;5056715;28;20670;-70
2021/07/31 03:41:45;;;;;;;13.90;8.05;;;;;;;;;;5072534;28;20272;-71
2021/07/31 03:44:10;;;;;;;20.97;8.53;;;;;;;;;;5066556;28;20288;-70
2021/07/31 03:46:35;;;;;;;15.18;7.03;;;;;;;;;;5072081;28;20437;-69
2021/07/31 03:49:00;;;;;;;10.93;7.57;;;;;;;;;;5069292;28;20251;-70
2021/07/31 03:51:25;;;;;;;11.23;7.43;;;;;;;;;;5068636;28;20429;-70
2021/07/31 03:53:51;;;;;;;11.77;6.43;;;;;;;;;;5071660;28;20193;-70
2021/07/31 03:56:16;;;;;;;16.53;7.07;;;;;;;;;;5062340;28;20979;-70
2021/07/31 03:58:41;;;;;;;13.23;7.82;;;;;;;;;;5061304;28;20728;-70
2021/07/31 04:01:06;;;;;;;8.65;5.82;;;;;;;;;;5059327;28;20177;-70
2021/07/31 04:03:31;;;;;;;12.52;6.95;;;;;;;;;;5060189;28;20597;-70
2021/07/31 04:05:58;;;;;;;9.30;6.60;;;;;;;;;;5048738;28;20182;-69
2021/07/31 04:08:23;;;;;;;13.43;6.28;;;;;;;;;;5068532;28;20545;-70
2021/07/31 04:10:48;;;;;;;11.07;6.25;;;;;;;;;;5069635;28;20260;-71
2021/07/31 04:13:13;;;;;;;17.80;6.53;;;;;;;;;;5068431;28;20552;-71
2021/07/31 04:15:42;;;;;;;8.20;5.83;;;;;;;;;;5067944;28;20424;-69
2021/07/31 04:18:07;;;;;;;7.38;5.53;;;;;;;;;;5060567;28;20499;-69
2021/07/31 04:20:32;;;;;;;9.07;6.13;;;;;;;;;;5065868;28;20662;-69
2021/07/31 04:22:57;;;;;;;8.30;6.00;;;;;;;;;;5066581;28;20576;-68
2021/07/31 04:25:22;;;;;;;9.87;6.27;;;;;;;;;;5070032;28;20177;-69
2021/07/31 04:27:47;;;;;;;7.55;5.57;;;;;;;;;;5070984;28;20833;-71
2021/07/31 04:30:13;;;;;;;10.35;5.60;;;;;;;;;;5066917;28;20174;-71
2021/07/31 04:32:38;;;;;;;9.43;6.25;;;;;;;;;;5067504;28;20208;-70
2021/07/31 04:35:03;;;;;;;9.93;5.80;;;;;;;;;;5068577;28;20523;-70
2021/07/31 04:37:28;;;;;;;6.82;5.75;;;;;;;;;;5070910;28;20184;-70
2021/07/31 04:39:53;;;;;;;8.60;5.72;;;;;;;;;;5065901;28;20204;-70
2021/07/31 04:42:19;;;;;;;8.37;5.77;;;;;;;;;;5070073;28;20616;-70
2021/07/31 04:44:44;;;;;;;8.13;4.82;;;;;;;;;;5069358;28;20429;-71
2021/07/31 04:47:09;;;;;;;11.60;4.88;;;;;;;;;;5068841;28;20664;-71
2021/07/31 04:49:35;;;;;;;8.43;5.35;;;;;;;;;;5070474;28;20231;-70
2021/07/31 04:52:00;;;;;;;8.77;5.47;;;;;;;;;;5071167;28;20185;-70
2021/07/31 04:54:27;;;;;;;4.83;4.20;;;;;;;;;;5069364;28;21881;-71
2021/07/31 04:56:52;;;;;;;8.25;4.18;;;;;;;;;;5068469;28;20475;-70
2021/07/31 04:59:17;;;;;;;6.00;4.43;;;;;;;;;;5065939;28;20184;-70
2021/07/31 05:01:43;;;;;;;7.13;4.05;;;;;;;;;;5070661;28;20617;-70
2021/07/31 05:04:08;;;;;;;8.65;4.22;;;;;;;;;;5054450;28;20697;-71
2021/07/31 05:06:33;;;;;;;8.38;3.70;;;;;;;;;;5050962;28;20189;-70
2021/07/31 05:08:58;;;;;;;7.90;4.50;;;;;;;;;;5053786;28;20197;-71
2021/07/31 05:11:23;;;;;;;9.13;3.85;;;;;;;;;;5066907;28;20894;-70
2021/07/31 05:13:49;;;;;;;10.45;5.38;;;;;;;;;;5068386;28;20252;-71
2021/07/31 05:16:15;;;;;;;7.85;3.90;;;;;;;;;;5066722;28;20177;-72
2021/07/31 05:18:40;;;;;;;4.55;3.67;;;;;;;;;;5067132;28;20650;-70
2021/07/31 05:21:06;;;;;;;4.13;2.92;;;;;;;;;;5069945;28;20184;-71
2021/07/31 05:23:32;;;;;;;4.30;3.08;;;;;;;;;;5067645;28;20636;-71
2021/07/31 05:25:57;;;;;;;6.60;3.63;;;;;;;;;;5067080;28;20295;-72
2021/07/31 05:28:22;;;;;;;4.60;3.23;;;;;;;;;;5066580;28;20452;-70
2021/07/31 05:30:47;;;;;;;3.05;2.65;;;;;;;;;;5065280;28;20429;-71
2021/07/31 05:33:12;;;;;;;3.88;2.70;;;;;;;;;;5050648;28;20295;-71
2021/07/31 05:35:38;;;;;;;4.65;2.70;;;;;;;;;;5059147;28;20564;-70
2021/07/31 05:38:03;;;;;;;5.10;3.00;;;;;;;;;;5066248;28;20237;-71
2021/07/31 05:40:28;;;;;;;7.80;3.38;;;;;;;;;;5064146;28;20181;-71
2021/07/31 05:42:54;;;;;;;4.55;3.20;;;;;;;;;;5065080;28;20571;-70
2021/07/31 05:45:19;;;;;;;7.50;3.03;;;;;;;;;;5064566;28;20188;-72
2021/07/31 05:47:44;;;;;;;7.93;3.88;;;;;;;;;;5058484;28;20196;-70
2021/07/31 05:50:10;;;;;;;4.50;3.13;;;;;;;;;;5068599;28;20183;-71
2021/07/31 05:52:35;;;;;;;3.78;2.80;;;;;;;;;;5065606;28;20201;-70
2021/07/31 05:55:01;;;;;;;10.23;3.08;;;;;;;;;;5064230;28;20186;-71
2021/07/31 05:57:26;;;;;;;6.70;3.50;;;;;;;;;;5062766;28;20181;-72
2021/07/31 05:59:52;;;;;;;4.32;2.80;;;;;;;;;;5049914;28;20185;-72
2021/07/31 06:02:17;;;;;;;4.72;3.40;;;;;;;;;;5068927;28;20685;-70
2021/07/31 06:04:42;;;;;;;6.50;2.90;;;;;;;;;;5068468;28;20204;-70
2021/07/31 06:07:10;;;;;;;3.13;2.63;;;;;;;;;;5050077;28;20589;-75
2021/07/31 06:09:35;;;;;;;6.18;2.63;;;;;;;;;;5064019;28;20209;-71
2021/07/31 06:12:01;;;;;;;4.65;2.80;;;;;;;;;;5066294;28;20173;-71
2021/07/31 06:14:27;;;;;;;4.93;3.20;;;;;;;;;;5062491;28;20200;-70
2021/07/31 06:16:52;;;;;;;5.50;2.78;;;;;;;;;;5068610;28;20650;-73
2021/07/31 06:19:17;;;;;;;5.40;3.00;;;;;;;;;;5063614;28;20568;-69
2021/07/31 06:21:42;;;;;;;3.20;2.40;;;;;;;;;;5059743;28;20311;-70
2021/07/31 06:24:08;;;;;;;6.17;2.77;;;;;;;;;;5059390;28;20954;-70
2021/07/31 06:26:34;;;;;;;4.15;2.70;;;;;;;;;;5067432;28;20564;-71
2021/07/31 06:28:59;;;;;;;5.93;2.80;;;;;;;;;;5062248;28;20196;-71
2021/07/31 06:31:24;;;;;;;2.83;2.63;;;;;;;;;;5050266;28;20186;-70
2021/07/31 06:33:49;;;;;;;3.20;2.38;;;;;;;;;;5071374;28;20437;-72
2021/07/31 06:36:19;;;;;;;6.40;2.50;;;;;;;;;;5056575;28;20175;-72
2021/07/31 06:38:44;;;;;;;3.80;2.40;;;;;;;;;;5071467;28;20725;-72
2021/07/31 06:41:09;;;;;;;4.22;2.58;;;;;;;;;;5069870;28;20621;-70
2021/07/31 06:43:34;;;;;;;4.80;2.70;;;;;;;;;;5073024;28;20318;-70
2021/07/31 06:46:07;;;;;;;4.20;2.33;;;;;;;;;;5072541;28;20177;-70
2021/07/31 06:48:33;;;;;;;3.25;2.50;;;;;;;;;;5073739;28;20189;-72
2021/07/31 06:51:00;;;;;;;4.37;2.30;;;;;;;;;;5070846;28;20242;-69
2021/07/31 06:53:26;;;;;;;5.07;2.50;;;;;;;;;;5072920;28;21012;-72
2021/07/31 06:55:51;;;;;;;3.35;2.20;;;;;;;;;;5071753;28;20173;-72
2021/07/31 06:58:16;;;;;;;3.50;2.30;;;;;;;;;;5072525;28;20267;-73
2021/07/31 07:00:41;;;;;;;3.45;2.72;;;;;;;;;;5073096;28;20204;-72
2021/07/31 07:03:06;;;;;;;5.63;2.23;;;;;;;;;;5071262;28;20295;-71
2021/07/31 07:05:33;;;;;;;4.17;1.90;;;;;;;;;;5074004;28;20432;-73
2021/07/31 07:07:58;;;;;;;4.68;2.10;;;;;;;;;;5071069;28;20427;-72
2021/07/31 07:10:23;;;;;;;6.07;3.22;;;;;;;;;;5067756;28;20600;-73
2021/07/31 07:12:49;;;;;;;5.77;2.33;;;;;;;;;;5068328;28;20337;-72
2021/07/31 07:15:14;;;;;;;20.23;3.43;;;;;;;;;;5070492;28;20434;-72
2021/07/31 07:17:39;;;;;;;7.45;2.67;;;;;;;;;;5072465;28;20508;-72
2021/07/31 07:20:04;;;;;;;6.97;2.90;;;;;;;;;;5073443;28;20188;-72
2021/07/31 07:22:30;;;;;;;9.15;2.55;;;;;;;;;;5073425;28;20187;-71
2021/07/31 07:24:55;;;;;;;7.07;2.83;;;;;;;;;;5072901;28;20189;-71
2021/07/31 07:27:20;;;;;;;8.70;2.40;;;;;;;;;;5073472;28;20416;-72
2021/07/31 07:29:45;;;;;;;7.35;2.60;;;;;;;;;;5068607;28;20469;-72
2021/07/31 07:32:10;;;;;;;9.20;2.90;;;;;;;;;;5071992;28;20298;-72
2021/07/31 07:34:36;;;;;;;4.50;2.43;;;;;;;;;;5054262;28;20437;-72
2021/07/31 07:37:02;;;;;;;5.53;2.83;;;;;;;;;;5072103;28;20953;-72
2021/07/31 07:39:27;;;;;;;4.90;2.40;;;;;;;;;;5068772;28;20185;-72
2021/07/31 07:41:52;;;;;;;4.35;2.15;;;;;;;;;;5070946;28;20271;-71
2021/07/31 07:44:17;;;;;;;6.00;2.50;;;;;;;;;;5071939;28;20660;-73
2021/07/31 07:46:43;;;;;;;7.47;2.90;;;;;;;;;;5072015;28;20448;-72
2021/07/31 07:49:08;;;;;;;5.37;2.67;;;;;;;;;;5054501;28;20189;-70
2021/07/31 07:51:33;;;;;;;8.57;3.97;;;;;;;;;;5073251;28;20413;-71
2021/07/31 07:53:58;;;;;;;6.93;2.75;;;;;;;;;;5055801;28;20532;-70
2021/07/31 07:56:23;;;;;;;5.53;2.97;;;;;;;;;;5071505;28;20565;-71
2021/07/31 07:58:53;;;;;;;10.10;3.53;;;;;;;;;;5071632;28;20425;-71
2021/07/31 08:01:18;;;;;;;5.75;3.22;;;;;;;;;;5054092;28;20190;-70
2021/07/31 08:03:43;;;;;;;6.93;2.90;;;;;;;;;;5071518;28;20682;-75
2021/07/31 08:06:14;;;;;;;18.57;3.33;;;;;;;;;;5054545;28;20188;-71
2021/07/31 08:08:39;;;;;;;6.63;3.17;;;;;;;;;;5077285;28;20480;-72
2021/07/31 08:11:07;;;;;;;6.67;3.10;;;;;;;;;;5076225;28;20607;-72
2021/07/31 08:13:32;;;;;;;7.25;2.83;;;;;;;;;;5071748;28;20963;-70
2021/07/31 08:15:57;;;;;;;3.20;2.20;;;;;;;;;;5067515;28;20196;-73
2021/07/31 08:18:22;;;;;;;3.40;2.80;;;;;;;;;;5071206;28;20524;-72
2021/07/31 08:20:47;;;;;;;4.75;2.90;;;;;;;;;;5072362;28;20414;-72
2021/07/31 08:23:12;;;;;;;6.33;3.37;;;;;;;;;;5054731;28;20193;-72
2021/07/31 08:25:38;;;;;;;4.45;3.03;;;;;;;;;;5071596;28;20436;-73
2021/07/31 08:28:03;;;;;;;5.53;3.20;;;;;;;;;;5053331;28;20184;-71
2021/07/31 08:30:28;;;;;;;6.95;3.47;;;;;;;;;;5071092;28;20181;-73
2021/07/31 08:32:53;;;;;;;4.60;3.40;;;;;;;;;;5071430;28;20207;-70
2021/07/31 08:35:18;;;;;;;4.65;3.30;;;;;;;;;;5070020;28;20180;-70
2021/07/31 08:37:44;;;;;;;6.25;3.20;;;;;;;;;;5071193;28;20173;-70
2021/07/31 08:40:10;;;;;;;5.07;3.30;;;;;;;;;;5068849;28;20611;-70
2021/07/31 08:42:36;;;;;;;6.28;3.47;;;;;;;;;;5072104;28;20425;-72
2021/07/31 08:45:02;;;;;;;5.18;3.70;;;;;;;;;;5070381;28;20177;-71
2021/07/31 08:47:28;;;;;;;7.03;3.95;;;;;;;;;;5070096;28;20196;-73
2021/07/31 08:49:54;;;;;;;4.38;3.78;;;;;;;;;;5070864;28;20278;-70
2021/07/31 08:52:20;;;;;;;6.00;3.47;;;;;;;;;;5059906;28;20663;-70
2021/07/31 08:54:45;;;;;;;6.30;3.58;;;;;;;;;;5069689;28;20181;-70
2021/07/31 08:57:11;;;;;;;5.03;3.50;;;;;;;;;;5070364;28;20558;-69
2021/07/31 08:59:36;;;;;;;7.97;4.70;;;;;;;;;;5071096;28;20500;-70
2021/07/31 09:02:01;;;;;;;7.25;4.75;;;;;;;;;;5072002;28;20208;-72
2021/07/31 09:04:27;;;;;;;8.73;4.32;;;;;;;;;;5059144;28;20303;-70
2021/07/31 09:06:52;;;;;;;7.28;3.78;;;;;;;;;;5069788;28;20254;-71
2021/07/31 09:09:27;;;;;;;2.83;2.50;;;;;;;;;;5069692;28;20246;-72
2021/07/31 09:12:00;;;;;;;2.95;2.65;;;;;;;;;;5053649;28;20168;-70
2021/07/31 09:14:25;;;;;;;4.05;3.00;;;;;;;;;;5067279;28;20223;-71
2021/07/31 09:16:51;;;;;;;4.60;2.72;;;;;;;;;;5053824;28;20638;-71
2021/07/31 09:19:16;;;;;;;5.65;4.22;;;;;;;;;;5070254;28;20189;-71
2021/07/31 09:21:42;;;;;;;5.78;4.63;;;;;;;;;;5069462;28;20594;-71
2021/07/31 09:24:33;;;;;;;6.63;4.40;;;;;;;;;;5070232;28;20735;-72
2021/07/31 09:26:58;;;;;;;7.85;4.55;;;;;;;;;;5065697;28;20193;-71
2021/07/31 09:29:35;;;;;;;9.02;5.57;;;;;;;;;;5065856;28;20204;-72
2021/07/31 09:32:04;;;;;;;7.50;4.30;;;;;;;;;;5065835;28;20549;-72
2021/07/31 09:34:58;;;;;;;10.38;4.82;;;;;;;;;;5069622;28;20729;-72
2021/07/31 09:37:25;;;;;;;6.82;4.53;;;;;;;;;;5061989;28;20189;-71
2021/07/31 09:40:03;;;;;;;10.20;5.13;;;;;;;;;;5059181;28;20184;-71
2021/07/31 09:42:30;;;;;;;7.63;4.20;;;;;;;;;;5069411;28;20188;-71
2021/07/31 09:45:04;;;;;;;6.32;4.30;;;;;;;;;;5070180;28;20264;-70
2021/07/31 09:47:30;;;;;;;6.32;3.83;;;;;;;;;;5051989;28;20225;-70
2021/07/31 09:49:57;;;;;;;13.27;5.28;;;;;;;;;;5069925;28;20300;-71
2021/07/31 09:52:23;;;;;;;7.97;4.70;;;;;;;;;;5069519;28;20184;-71
2021/07/31 09:54:49;;;;;;;10.13;4.40;;;;;;;;;;5069203;28;20658;-71
2021/07/31 09:57:14;;;;;;;5.45;4.03;;;;;;;;;;5069266;28;20208;-70
2021/07/31 09:59:44;;;;;;;4.78;4.28;;;;;;;;;;5052498;28;20666;-71
2021/07/31 10:02:13;;;;;;;7.95;4.35;;;;;;;;;;5064843;28;20176;-73
2021/07/31 10:04:38;;;;;;;8.30;4.45;;;;;;;;;;5071018;28;20259;-74
2021/07/31 10:07:04;;;;;;;5.35;3.47;;;;;;;;;;5073767;28;20654;-73
2021/07/31 10:09:29;;;;;;;4.38;2.55;;;;;;;;;;5056512;28;20662;-72
2021/07/31 10:11:55;;;;;;;5.15;2.88;;;;;;;;;;5074838;28;20259;-71
2021/07/31 10:14:22;;;;;;;5.65;2.70;;;;;;;;;;5073682;28;20203;-72
2021/07/31 10:16:47;;;;;;;3.22;2.40;;;;;;;;;;5056583;28;20165;-73
2021/07/31 10:19:13;;;;;;;4.95;1.92;;;;;;;;;;5073707;28;20191;-71
2021/07/31 10:21:48;;;;;;;2.97;1.67;;;;;;;;;;5073387;28;20177;-70
2021/07/31 10:24:14;;;;;;;1.75;1.63;;;;;;;;;;5066260;28;20734;-71
2021/07/31 10:26:39;;;;;;;2.88;2.00;;;;;;;;;;5058407;28;20207;-70
2021/07/31 10:29:23;;;;;;;3.97;2.47;;;;;;;;;;5073492;28;20578;-71
2021/07/31 10:31:49;;;;;;;5.07;2.83;;;;;;;;;;5056600;28;20173;-71
2021/07/31 10:34:34;;;;;;;3.83;2.67;;;;;;;;;;5072063;28;20272;-72
2021/07/31 10:37:01;;;;;;;6.50;3.10;;;;;;;;;;5069865;28;20185;-71
2021/07/31 10:39:26;;;;;;;5.97;3.17;;;;;;;;;;5071972;28;20225;-73
2021/07/31 10:41:58;;;;;;;4.15;2.97;;;;;;;;;;5074447;28;20263;-71
2021/07/31 10:44:23;;;;;;;6.05;2.60;;;;;;;;;;5069497;28;20258;-73
2021/07/31 10:46:49;;;;;;;3.35;2.28;;;;;;;;;;5058250;28;20177;-71
2021/07/31 10:49:33;;;;;;;3.10;2.40;;;;;;;;;;5072979;28;20334;-71
2021/07/31 10:51:58;;;;;;;4.85;2.78;;;;;;;;;;5074239;28;20169;-72
2021/07/31 10:54:53;;;;;;;4.90;2.60;;;;;;;;;;5073050;28;20197;-72
2021/07/31 10:57:18;;;;;;;6.13;2.92;;;;;;;;;;5059558;28;20193;-71
2021/07/31 11:00:03;;;;;;;15.00;4.00;;;;;;;;;;5069015;28;20189;-69
2021/07/31 11:02:32;;;;;;;6.90;3.13;;;;;;;;;;5048200;28;20509;-72
2021/07/31 11:04:58;;;;;;;6.68;4.15;;;;;;;;;;5073873;28;20196;-70
2021/07/31 11:07:26;;;;;;;4.40;3.95;;;;;;;;;;5073459;28;20196;-71
2021/07/31 11:10:10;;;;;;;4.63;3.50;;;;;;;;;;5072648;28;20205;-71
2021/07/31 11:12:41;;;;;;;5.88;3.38;;;;;;;;;;5066375;28;20201;-71
2021/07/31 11:15:07;;;;;;;7.15;3.75;;;;;;;;;;5055095;28;20573;-70
2021/07/31 11:17:33;;;;;;;9.60;3.20;;;;;;;;;;5071957;28;20693;-70
2021/07/31 11:19:58;;;;;;;5.07;3.75;;;;;;;;;;5065016;28;20234;-71
2021/07/31 11:22:26;;;;;;;6.17;4.23;;;;;;;;;;5073769;28;20184;-71
2021/07/31 11:24:54;;;;;;;4.85;3.25;;;;;;;;;;5051694;28;20429;-70
2021/07/31 11:27:19;;;;;;;6.32;3.58;;;;;;;;;;5071892;28;20188;-70
2021/07/31 11:29:51;;;;;;;7.47;4.10;;;;;;;;;;5071309;28;20206;-71
2021/07/31 11:32:16;;;;;;;6.15;3.55;;;;;;;;;;5055259;28;20177;-70
2021/07/31 11:34:45;;;;;;;3.67;3.28;;;;;;;;;;5072688;28;20184;-71
2021/07/31 11:37:11;;;;;;;4.60;3.67;;;;;;;;;;5073426;28;20173;-71
2021/07/31 11:39:37;;;;;;;6.72;3.90;;;;;;;;;;5080039;28;20173;-71
2021/07/31 11:42:03;;;;;;;4.95;3.85;;;;;;;;;;5084848;28;20264;-71
2021/07/31 11:44:29;;;;;;;6.15;3.58;;;;;;;;;;5060575;28;20254;-71
2021/07/31 11:46:54;;;;;;;6.55;4.13;;;;;;;;;;5069694;28;20193;-71
2021/07/31 11:49:27;;;;;;;6.18;3.38;;;;;;;;;;5059914;28;20266;-72
2021/07/31 11:51:53;;;;;;;4.20;3.45;;;;;;;;;;5067102;28;20428;-70
2021/07/31 11:54:19;;;;;;;5.00;3.72;;;;;;;;;;5072129;28;20580;-71
2021/07/31 11:56:45;;;;;;;4.53;3.30;;;;;;;;;;5072450;28;20173;-71
2021/07/31 11:59:11;;;;;;;4.60;3.10;;;;;;;;;;5071425;28;20173;-70
2021/07/31 12:01:37;;;;;;;3.70;2.33;;;;;;;;;;5071723;28;20194;-73
2021/07/31 12:04:02;;;;;;;6.38;2.67;;;;;;;;;;5056514;28;20212;-72
2021/07/31 12:06:41;;;;;;;5.63;2.53;;;;;;;;;;5054601;28;20226;-71
2021/07/31 12:09:07;;;;;;;3.67;2.40;;;;;;;;;;5062956;28;20224;-71
2021/07/31 12:11:37;;;;;;;4.78;2.63;;;;;;;;;;5072536;28;20169;-70
2021/07/31 12:14:21;;;;;;;6.03;2.78;;;;;;;;;;5070784;28;20199;-71
2021/07/31 12:16:46;;;;;;;3.28;2.47;;;;;;;;;;5072600;28;20184;-70
2021/07/31 12:19:11;;;;;;;2.50;2.07;;;;;;;;;;5053789;28;20188;-71
2021/07/31 12:21:36;;;;;;;7.23;3.00;;;;;;;;;;5054284;28;20446;-71
2021/07/31 12:24:03;;;;;;;3.13;2.83;;;;;;;;;;5071387;28;20464;-71
2021/07/31 12:26:31;;;;;;;4.35;3.03;;;;;;;;;;5072236;28;20420;-71
2021/07/31 12:28:57;;;;;;;4.43;2.75;;;;;;;;;;5067981;28;20226;-70
2021/07/31 12:31:26;;;;;;;3.42;2.85;;;;;;;;;;5050018;28;20764;-71
2021/07/31 12:33:52;;;;;;;3.58;2.92;;;;;;;;;;5070960;28;20197;-70
2021/07/31 12:36:17;;;;;;;4.85;3.38;;;;;;;;;;5054260;28;20531;-71
2021/07/31 12:38:42;;;;;;;3.50;3.20;;;;;;;;;;5070779;28;20189;-71
2021/07/31 12:41:08;;;;;;;4.23;2.87;;;;;;;;;;5069656;28;20182;-71
2021/07/31 12:43:33;;;;;;;3.80;3.10;;;;;;;;;;5069178;28;20452;-71
2021/07/31 12:46:02;;;;;;;5.27;3.13;;;;;;;;;;5051740;28;20701;-74
2021/07/31 12:48:28;;;;;;;4.22;3.60;;;;;;;;;;5070118;28;20449;-70
2021/07/31 12:50:53;;;;;;;5.88;3.50;;;;;;;;;;5071837;28;20185;-70
2021/07/31 12:53:19;;;;;;;4.27;3.33;;;;;;;;;;5055035;28;20200;-70
2021/07/31 12:55:44;;;;;;;4.00;3.60;;;;;;;;;;5048162;28;20986;-71
2021/07/31 12:58:09;;;;;;;7.35;4.65;;;;;;;;;;5068415;28;20689;-71
2021/07/31 13:00:38;;;;;;;5.05;4.30;;;;;;;;;;5071746;28;20208;-71
2021/07/31 13:03:07;;;;;;;8.77;5.05;;;;;;;;;;5070556;28;20193;-71
2021/07/31 13:05:35;;;;;;;5.78;5.10;;;;;;;;;;5070717;28;20192;-70
2021/07/31 13:08:01;;;;;;;5.70;5.05;;;;;;;;;;5070279;28;20187;-73
2021/07/31 13:10:33;;;;;;;5.20;4.70;;;;;;;;;;5052530;28;20181;-72
2021/07/31 13:12:59;;;;;;;5.20;4.70;;;;;;;;;;5066467;28;20545;-73
2021/07/31 13:15:24;;;;;;;8.30;5.35;;;;;;;;;;5072166;28;20252;-75
2021/07/31 13:17:49;;;;;;;5.20;4.80;;;;;;;;;;5066332;28;20654;-73
2021/07/31 13:20:16;;;;;;;8.73;5.22;;;;;;;;;;5050957;28;20594;-72
2021/07/31 13:22:42;;;;;;;7.10;5.25;;;;;;;;;;5069784;28;20564;-72
2021/07/31 13:25:07;;;;;;;6.75;5.30;;;;;;;;;;5071124;28;20183;-70
2021/07/31 13:27:33;;;;;;;6.75;5.20;;;;;;;;;;5067541;28;20188;-70
2021/07/31 13:29:58;;;;;;;6.78;4.68;;;;;;;;;;5070189;28;20258;-69
2021/07/31 13:32:23;;;;;;;5.53;5.03;;;;;;;;;;5071214;28;20235;-70
2021/07/31 13:34:48;;;;;;;5.65;4.78;;;;;;;;;;5069624;28;20246;-68
2021/07/31 13:37:27;;;;;;;5.30;4.43;;;;;;;;;;5070286;28;20189;-73
2021/07/31 13:39:53;;;;;;;6.80;4.53;;;;;;;;;;5067518;28;20946;-73
2021/07/31 13:42:18;;;;;;;5.25;4.63;;;;;;;;;;5068993;28;20180;-70
2021/07/31 13:44:47;;;;;;;6.50;5.13;;;;;;;;;;5067103;28;20181;-71
2021/07/31 13:47:12;;;;;;;5.85;4.95;;;;;;;;;;5064310;28;20433;-71
2021/07/31 13:49:39;;;;;;;6.10;5.60;;;;;;;;;;5070121;28;20251;-71
2021/07/31 13:52:05;;;;;;;8.13;5.23;;;;;;;;;;5058353;28;20694;-71
2021/07/31 13:54:30;;;;;;;6.93;5.85;;;;;;;;;;5070433;28;20461;-71
2021/07/31 13:56:55;;;;;;;6.05;4.78;;;;;;;;;;5069478;28;20227;-71
2021/07/31 13:59:21;;;;;;;4.95;4.40;;;;;;;;;;5070320;28;20173;-71
2021/07/31 14:01:46;;;;;;;10.60;4.70;;;;;;;;;;5071042;28;20179;-74
2021/07/31 14:04:13;;;;;;;6.32;4.65;;;;;;;;;;5070013;28;20215;-70
2021/07/31 14:06:38;;;;;;;10.27;5.53;;;;;;;;;;5070713;28;20192;-70
2021/07/31 14:09:03;;;;;;;6.80;5.47;;;;;;;;;;5052498;28;20223;-72
2021/07/31 14:11:28;;;;;;;6.32;4.43;;;;;;;;;;5068541;28;20398;-70
2021/07/31 14:13:53;;;;;;;6.40;5.17;;;;;;;;;;5069825;28;20201;-73
2021/07/31 14:16:18;;;;;;;5.27;4.00;;;;;;;;;;5070852;28;20501;-72
2021/07/31 14:18:44;;;;;;;6.37;4.53;;;;;;;;;;5069215;28;20425;-72
2021/07/31 14:21:09;;;;;;;5.67;4.23;;;;;;;;;;5070731;28;20401;-72
2021/07/31 14:23:35;;;;;;;4.75;3.78;;;;;;;;;;5067879;28;20445;-72
2021/07/31 14:26:00;;;;;;;5.28;3.90;;;;;;;;;;5055622;28;20173;-73
2021/07/31 14:28:26;;;;;;;4.70;4.03;;;;;;;;;;5069718;28;20197;-72
2021/07/31 14:30:51;;;;;;;4.47;3.78;;;;;;;;;;5070904;28;20431;-71
2021/07/31 14:33:16;;;;;;;5.40;4.35;;;;;;;;;;5069692;28;20201;-72
2021/07/31 14:35:41;;;;;;;4.93;4.20;;;;;;;;;;5069229;28;20185;-72
2021/07/31 14:38:07;;;;;;;5.03;4.38;;;;;;;;;;5067503;28;20173;-73